Terminal Aerodrome Forecast
Issued by NWS

Home | Current Version | Previous Version | Text Only | Print | Product List | Glossary On
Versions: 1 2 3 4 5 6 7 8 9 10 11 12 13 14 15 16 17 18 19 20 21 22
071
FTUS43 KLSX 241401 AAB
TAFCPS
TAF AMD
KCPS 241401Z 2414/2512 35010KT 5SM BR OVC010
      TEMPO 2414/2416 1 1/2SM -DZ BR OVC006
     FM241600 35010G17KT P6SM BKN045
     FM242100 35008KT P6SM BKN110
     FM250300 34004KT P6SM SCT250=

USA.gov is the U.S. government's official web portal to all federal, state and local government web resources and services.